createdAt,value
2023-04-28T00:01:53.873Z,95.70
2023-04-28T00:04:46.208Z,95.80
2023-04-28T00:07:34.000Z,95.90
2023-04-28T00:10:21.979Z,96.00
2023-04-28T00:13:09.777Z,95.90
2023-04-28T00:15:57.358Z,96.10
2023-04-28T00:18:45.309Z,96.00
2023-04-28T00:21:34.419Z,96.00
2023-04-28T00:24:21.850Z,96.30
2023-04-28T00:27:09.740Z,96.00
2023-04-28T00:29:58.802Z,96.00
2023-04-28T00:32:46.466Z,96.10
2023-04-28T00:35:33.768Z,96.10
2023-04-28T00:38:25.954Z,96.20
2023-04-28T00:41:14.885Z,96.20
2023-04-28T00:44:02.435Z,96.30
2023-04-28T00:46:50.747Z,96.30
2023-04-28T00:49:38.381Z,96.30
2023-04-28T00:52:25.775Z,96.30
2023-04-28T00:55:18.890Z,96.30
2023-04-28T00:58:09.808Z,96.40
2023-04-28T01:01:05.342Z,96.50
2023-04-28T01:03:53.451Z,96.50
2023-04-28T01:06:43.993Z,96.20
2023-04-28T01:09:32.545Z,96.40
2023-04-28T01:12:21.636Z,96.40
2023-04-28T01:15:17.678Z,96.40
2023-04-28T01:18:09.185Z,96.30
2023-04-28T01:20:57.397Z,96.30
2023-04-28T01:23:50.228Z,96.20
2023-04-28T01:26:37.807Z,96.40
2023-04-28T01:29:25.358Z,96.40
2023-04-28T01:32:20.322Z,96.30
2023-04-28T01:35:08.322Z,96.40
2023-04-28T01:37:57.167Z,96.30
2023-04-28T01:40:46.266Z,96.40
2023-04-28T01:43:34.195Z,96.40
2023-04-28T01:46:21.835Z,96.20
2023-04-28T01:49:12.482Z,96.40
2023-04-28T01:52:01.546Z,96.40
2023-04-28T01:54:51.133Z,96.30
2023-04-28T01:57:40.313Z,96.30
2023-04-28T02:00:30.072Z,96.30
2023-04-28T02:03:19.814Z,96.50
2023-04-28T02:06:10.535Z,96.30
2023-04-28T02:08:58.187Z,96.30
2023-04-28T02:11:48.289Z,96.00
2023-04-28T02:14:38.053Z,96.20
2023-04-28T02:17:25.758Z,96.50
2023-04-28T02:20:14.705Z,96.50
2023-04-28T02:23:02.370Z,96.60
2023-04-28T02:25:50.496Z,96.70
2023-04-28T02:28:38.432Z,96.70
2023-04-28T02:31:30.571Z,96.60
2023-04-28T02:34:18.610Z,96.50
2023-04-28T02:37:06.645Z,96.50
2023-04-28T02:39:54.806Z,96.80
2023-04-28T02:42:43.803Z,96.90
2023-04-28T02:45:36.894Z,96.90
2023-04-28T02:48:26.286Z,97.10
2023-04-28T02:51:16.291Z,97.20
2023-04-28T02:54:04.514Z,97.10
2023-04-28T02:56:52.378Z,97.20
2023-04-28T02:59:40.507Z,97.30
2023-04-28T03:02:28.513Z,97.40
2023-04-28T03:05:17.795Z,97.40
2023-04-28T03:08:05.504Z,97.50
2023-04-28T03:10:53.021Z,97.60
2023-04-28T03:13:40.252Z,98.10
2023-04-28T03:16:31.130Z,97.90
2023-04-28T03:19:18.976Z,97.80
2023-04-28T03:22:08.447Z,97.90
2023-04-28T03:24:56.990Z,97.80
2023-04-28T03:27:46.327Z,97.90
2023-04-28T03:30:34.330Z,98.00
2023-04-28T03:33:21.908Z,98.00
2023-04-28T03:36:09.934Z,98.10
2023-04-28T03:39:02.397Z,98.20
2023-04-28T03:41:53.908Z,98.20
2023-04-28T03:45:01.618Z,98.20
2023-04-28T03:47:49.983Z,98.30
2023-04-28T03:50:41.241Z,98.40
2023-04-28T03:53:28.656Z,98.50
2023-04-28T03:56:18.143Z,98.40
2023-04-28T03:59:05.590Z,98.60
2023-04-28T04:01:53.131Z,98.60
2023-04-28T04:04:40.980Z,99.00
2023-04-28T04:07:29.456Z,98.80
2023-04-28T04:10:17.654Z,99.00
2023-04-28T04:13:07.337Z,99.30
2023-04-28T04:15:55.238Z,99.00
2023-04-28T04:18:45.028Z,98.80
2023-04-28T04:21:46.711Z,98.80
2023-04-28T04:24:33.942Z,99.00
2023-04-28T04:27:21.906Z,99.10
2023-04-28T04:30:11.933Z,99.00
2023-04-28T04:32:59.618Z,99.20
2023-04-28T04:35:47.552Z,99.30
2023-04-28T04:38:35.143Z,99.30
2023-04-28T04:41:38.198Z,99.20
2023-04-28T04:44:45.955Z,99.20
2023-04-28T04:47:46.916Z,99.30
2023-04-28T04:50:37.111Z,99.60
2023-04-28T04:53:25.922Z,99.60
2023-04-28T04:56:14.466Z,99.60
2023-04-28T04:59:01.998Z,99.70
2023-04-28T05:02:00.494Z,99.90
2023-04-28T05:04:51.343Z,99.90
2023-04-28T05:07:40.249Z,99.90
2023-04-28T05:10:27.706Z,99.90
2023-04-28T05:13:16.209Z,99.90
2023-04-28T05:16:04.214Z,99.90
2023-04-28T05:19:11.819Z,99.90
2023-04-28T05:22:01.935Z,99.90
2023-04-28T05:24:49.738Z,99.90
2023-04-28T05:27:39.426Z,99.90
2023-04-28T05:30:27.298Z,99.90
2023-04-28T05:33:16.105Z,99.90
2023-04-28T05:36:04.448Z,99.90
2023-04-28T05:38:55.795Z,99.90
2023-04-28T05:41:43.792Z,99.90
2023-04-28T05:44:32.623Z,99.90
2023-04-28T05:47:21.600Z,99.90
2023-04-28T05:50:10.693Z,99.90
2023-04-28T05:52:58.474Z,99.90
2023-04-28T05:55:48.479Z,99.90
2023-04-28T05:58:39.541Z,99.70
2023-04-28T06:01:29.972Z,99.60
2023-04-28T06:04:18.373Z,99.60
2023-04-28T06:07:08.290Z,99.50
2023-04-28T06:09:55.950Z,99.50
2023-04-28T06:12:45.375Z,99.40
2023-04-28T06:15:33.950Z,99.40
2023-04-28T06:18:21.921Z,99.50
2023-04-28T06:21:12.575Z,99.40
2023-04-28T06:24:02.589Z,99.60
2023-04-28T06:26:51.193Z,99.50
2023-04-28T06:29:40.666Z,99.70
2023-04-28T06:32:28.344Z,99.80
2023-04-28T06:35:18.063Z,99.70
2023-04-28T06:38:08.788Z,99.70
2023-04-28T06:40:58.336Z,99.60
2023-04-28T06:43:46.364Z,99.50
2023-04-28T06:46:41.068Z,99.50
2023-04-28T06:49:35.985Z,99.50
2023-04-28T06:52:33.127Z,99.60
2023-04-28T06:55:28.555Z,99.60
2023-04-28T06:58:18.856Z,99.70
2023-04-28T07:01:08.842Z,99.70
2023-04-28T07:03:57.604Z,99.20
2023-04-28T07:06:45.270Z,98.80
2023-04-28T07:09:32.274Z,98.70
2023-04-28T07:12:19.253Z,98.60
2023-04-28T07:15:06.823Z,98.30
2023-04-28T07:17:54.081Z,98.30
2023-04-28T07:20:42.559Z,98.00
2023-04-28T07:23:29.918Z,97.60
2023-04-28T07:26:17.872Z,97.70
2023-04-28T07:29:05.544Z,97.60
2023-04-28T07:31:53.457Z,97.50
2023-04-28T07:34:41.803Z,97.50
2023-04-28T07:37:33.389Z,97.50
2023-04-28T07:40:21.842Z,97.50
2023-04-28T07:43:09.790Z,97.40
2023-04-28T07:45:57.716Z,97.50
2023-04-28T07:48:45.323Z,97.80
2023-04-28T07:51:32.928Z,97.40
2023-04-28T07:54:25.535Z,97.30
2023-04-28T07:57:13.114Z,97.10
2023-04-28T08:00:00.648Z,97.10
2023-04-28T08:02:49.788Z,97.10
2023-04-28T08:05:38.014Z,97.20
2023-04-28T08:08:26.787Z,96.90
2023-04-28T08:11:16.526Z,97.50
2023-04-28T08:14:04.246Z,97.10
2023-04-28T08:16:53.510Z,97.10
2023-04-28T08:19:46.507Z,97.30
2023-04-28T08:22:34.878Z,97.80
2023-04-28T08:25:22.690Z,97.40
2023-04-28T08:28:12.552Z,97.30
2023-04-28T08:31:01.389Z,97.40
2023-04-28T08:33:51.695Z,97.30
2023-04-28T08:36:39.670Z,97.50
2023-04-28T08:39:28.762Z,97.60
2023-04-28T08:42:19.251Z,97.80
2023-04-28T08:45:08.153Z,97.90
2023-04-28T08:47:57.853Z,98.10
2023-04-28T08:50:50.233Z,98.20
2023-04-28T08:54:06.108Z,98.20
2023-04-28T08:56:48.470Z,98.10
2023-04-28T08:59:35.903Z,98.30
2023-04-28T09:02:25.221Z,98.30
2023-04-28T09:05:14.089Z,98.50
2023-04-28T09:08:04.087Z,98.20
2023-04-28T09:11:09.156Z,98.10
2023-04-28T09:14:14.401Z,98.20
2023-04-28T09:17:02.045Z,98.10
2023-04-28T09:19:50.360Z,97.90
2023-04-28T09:22:37.759Z,97.90
2023-04-28T09:25:27.308Z,97.80
2023-04-28T09:28:23.052Z,97.80
2023-04-28T09:31:26.126Z,98.30
2023-04-28T09:34:14.548Z,97.90
2023-04-28T09:37:17.344Z,98.00
2023-04-28T09:40:08.765Z,98.00
2023-04-28T09:42:55.638Z,98.20
2023-04-28T09:45:43.177Z,98.30
2023-04-28T09:48:32.235Z,98.40
2023-04-28T09:51:25.928Z,98.50
2023-04-28T09:54:15.395Z,98.60
2023-04-28T09:57:03.549Z,98.80
2023-04-28T09:59:54.147Z,98.80
2023-04-28T10:02:44.044Z,99.00
2023-04-28T10:05:34.831Z,98.90
2023-04-28T10:08:23.602Z,99.00
2023-04-28T10:11:13.681Z,99.10
2023-04-28T10:14:04.263Z,99.50
2023-04-28T10:16:55.069Z,99.10
2023-04-28T10:19:47.766Z,99.10
2023-04-28T10:22:53.795Z,99.20
2023-04-28T10:25:47.097Z,99.30
2023-04-28T10:28:37.992Z,99.50
2023-04-28T10:31:25.954Z,99.50
2023-04-28T10:34:30.830Z,99.70
2023-04-28T10:37:20.348Z,99.90
2023-04-28T10:40:37.545Z,99.90
2023-04-28T10:43:40.191Z,99.90
2023-04-28T10:46:28.295Z,99.90
2023-04-28T10:49:16.262Z,99.90
2023-04-28T10:52:04.759Z,99.90
2023-04-28T10:55:22.586Z,99.90
2023-04-28T10:58:34.248Z,99.90
2023-04-28T11:01:32.658Z,99.90
2023-04-28T11:04:24.894Z,99.90
2023-04-28T11:07:15.179Z,99.90
2023-04-28T11:10:03.316Z,99.90
2023-04-28T11:13:21.672Z,99.90
2023-04-28T11:16:09.581Z,99.80
2023-04-28T11:19:06.724Z,99.90
2023-04-28T11:21:59.884Z,99.90
2023-04-28T11:24:59.064Z,99.90
2023-04-28T11:27:47.117Z,99.90
2023-04-28T11:30:35.246Z,99.90
2023-04-28T11:33:26.423Z,99.90
2023-04-28T11:36:25.448Z,99.90
2023-04-28T11:39:15.983Z,99.90
2023-04-28T11:42:11.110Z,99.90
2023-04-28T11:44:58.985Z,99.90
2023-04-28T11:47:47.110Z,99.90
2023-04-28T11:50:38.762Z,99.90
2023-04-28T11:53:44.282Z,99.90
2023-04-28T11:56:38.223Z,99.90
2023-04-28T11:59:27.088Z,99.90
2023-04-28T12:02:17.399Z,99.90
2023-04-28T12:05:09.123Z,99.90
2023-04-28T12:07:56.896Z,99.90
2023-04-28T12:10:44.793Z,99.90
2023-04-28T12:13:34.036Z,99.90
2023-04-28T12:16:44.337Z,99.90
2023-04-28T12:19:46.496Z,99.90
2023-04-28T12:22:49.393Z,99.90
2023-04-28T12:25:47.466Z,99.90
2023-04-28T12:28:41.984Z,99.90
2023-04-28T12:31:29.847Z,99.90
2023-04-28T12:34:17.715Z,99.90
2023-04-28T12:37:07.011Z,99.90
2023-04-28T12:39:55.120Z,99.90
2023-04-28T12:42:45.525Z,99.90
2023-04-28T12:45:36.462Z,99.90
2023-04-28T12:48:25.746Z,99.90
2023-04-28T12:51:13.769Z,99.90
2023-04-28T12:54:01.387Z,99.90
2023-04-28T12:56:49.372Z,99.90
2023-04-28T12:59:37.421Z,99.90
2023-04-28T13:02:26.733Z,99.90
2023-04-28T13:05:15.960Z,99.90
2023-04-28T13:08:04.044Z,99.90
2023-04-28T13:10:52.864Z,99.90
2023-04-28T13:13:41.627Z,99.90
2023-04-28T13:16:30.828Z,99.90
2023-04-28T13:19:21.241Z,99.90
2023-04-28T13:22:09.657Z,99.90
2023-04-28T13:24:57.958Z,99.90
2023-04-28T13:27:46.283Z,99.70
2023-04-28T13:30:35.054Z,99.50
2023-04-28T13:33:22.338Z,99.50
2023-04-28T13:36:11.139Z,99.10
2023-04-28T13:39:00.370Z,99.10
2023-04-28T13:41:49.379Z,99.50
2023-04-28T13:44:36.785Z,99.60
2023-04-28T13:47:24.784Z,99.60
2023-04-28T13:50:11.962Z,99.60
2023-04-28T13:53:01.253Z,99.50
2023-04-28T13:55:50.002Z,99.40
2023-04-28T13:58:37.798Z,99.10
2023-04-28T14:01:26.790Z,98.70
2023-04-28T14:04:14.929Z,98.50
2023-04-28T14:07:03.194Z,98.50
2023-04-28T14:09:52.874Z,98.30
2023-04-28T14:12:41.255Z,98.20
2023-04-28T14:15:28.887Z,98.00
2023-04-28T14:18:16.750Z,98.30
2023-04-28T14:21:08.742Z,98.20
2023-04-28T14:23:57.080Z,97.90
2023-04-28T14:26:46.147Z,97.80
2023-04-28T14:29:36.422Z,97.80
2023-04-28T14:32:24.485Z,97.90
2023-04-28T14:35:17.854Z,97.50
2023-04-28T14:38:05.742Z,97.20
2023-04-28T14:40:54.060Z,97.50
2023-04-28T14:43:43.681Z,97.60
2023-04-28T14:46:31.917Z,97.70
2023-04-28T14:49:19.823Z,97.80
2023-04-28T14:52:07.708Z,97.80
2023-04-28T14:54:55.672Z,98.20
2023-04-28T14:57:47.208Z,98.00
2023-04-28T15:00:40.216Z,98.30
2023-04-28T15:03:28.531Z,97.80
2023-04-28T15:06:16.963Z,97.90
2023-04-28T15:09:04.494Z,98.00
2023-04-28T15:11:53.017Z,97.90
2023-04-28T15:14:40.678Z,98.00
2023-04-28T15:17:30.125Z,98.10
2023-04-28T15:20:17.307Z,98.30
2023-04-28T15:23:04.964Z,98.50
2023-04-28T15:25:54.368Z,98.50
2023-04-28T15:28:41.792Z,98.70
2023-04-28T15:31:31.395Z,98.70
2023-04-28T15:34:20.354Z,98.90
2023-04-28T15:37:41.660Z,98.90
2023-04-28T15:40:28.850Z,99.00
2023-04-28T15:43:16.241Z,99.10
2023-04-28T15:46:04.436Z,99.30
2023-04-28T15:48:52.691Z,99.50
2023-04-28T15:51:41.217Z,99.90
2023-04-28T15:54:30.381Z,99.80
2023-04-28T15:57:17.621Z,99.90
2023-04-28T16:00:07.101Z,99.90
2023-04-28T16:02:56.521Z,99.90
2023-04-28T16:05:45.911Z,99.90
2023-04-28T16:08:38.755Z,99.90
2023-04-28T16:11:26.835Z,99.90
2023-04-28T16:14:15.957Z,99.90
2023-04-28T16:17:04.931Z,99.90
2023-04-28T16:19:53.350Z,99.90
2023-04-28T16:22:42.284Z,99.90
2023-04-28T16:25:33.614Z,99.90
2023-04-28T16:28:21.258Z,99.90
2023-04-28T16:31:12.478Z,99.90
2023-04-28T16:34:00.429Z,99.90
2023-04-28T16:36:48.136Z,99.90
2023-04-28T16:39:36.234Z,99.90
2023-04-28T16:42:26.049Z,99.90
2023-04-28T16:45:13.900Z,99.90
2023-04-28T16:48:01.747Z,99.90
2023-04-28T16:50:49.542Z,99.90
2023-04-28T16:53:36.785Z,99.90
2023-04-28T16:56:24.323Z,99.90
2023-04-28T16:59:13.677Z,99.90
2023-04-28T17:02:04.140Z,99.90
2023-04-28T17:04:52.633Z,99.90
2023-04-28T17:07:40.279Z,99.90
2023-04-28T17:10:28.603Z,99.90
2023-04-28T17:13:16.468Z,99.90
2023-04-28T17:16:06.239Z,99.90
2023-04-28T17:18:54.164Z,99.90
2023-04-28T17:21:42.148Z,99.90
2023-04-28T17:24:29.665Z,99.90
2023-04-28T17:27:21.352Z,99.90
2023-04-28T17:30:13.520Z,99.90
2023-04-28T17:33:02.801Z,99.90
2023-04-28T17:35:50.370Z,99.90
2023-04-28T17:38:39.989Z,99.90
2023-04-28T17:41:28.286Z,99.90
2023-04-28T17:44:15.926Z,99.90
2023-04-28T17:47:04.026Z,99.90
2023-04-28T17:49:53.171Z,99.90
2023-04-28T17:52:43.882Z,99.90
2023-04-28T17:55:31.735Z,99.90
2023-04-28T17:58:20.237Z,99.90
2023-04-28T18:01:09.344Z,99.90
2023-04-28T18:03:58.645Z,99.90
2023-04-28T18:06:47.882Z,99.90
2023-04-28T18:09:35.764Z,99.90
2023-04-28T18:12:24.648Z,99.90
2023-04-28T18:15:12.749Z,99.90
2023-04-28T18:18:00.454Z,99.90
2023-04-28T18:20:58.186Z,99.90
2023-04-28T18:23:50.297Z,99.90
2023-04-28T18:26:38.077Z,99.90
2023-04-28T18:29:25.306Z,99.90
2023-04-28T18:32:14.836Z,99.90
2023-04-28T18:35:03.058Z,99.90
2023-04-28T18:37:51.061Z,99.90
2023-04-28T18:40:41.254Z,99.90
2023-04-28T18:43:28.685Z,99.90
2023-04-28T18:51:55.127Z,99.90
2023-04-28T18:54:43.975Z,99.90
2023-04-28T18:57:33.345Z,99.90
2023-04-28T19:00:20.981Z,99.90
2023-04-28T19:03:11.616Z,99.90
2023-04-28T19:06:01.408Z,99.90
2023-04-28T19:08:51.530Z,99.90
2023-04-28T19:14:31.254Z,99.90
2023-04-28T19:17:19.565Z,99.90
2023-04-28T19:20:10.872Z,99.90
2023-04-28T19:23:02.683Z,99.90
2023-04-28T19:25:54.980Z,99.90
2023-04-28T19:28:43.420Z,99.90
2023-04-28T19:31:32.743Z,99.90
2023-04-28T19:34:20.512Z,99.90
2023-04-28T19:37:11.591Z,99.90
2023-04-28T19:40:02.297Z,99.90
2023-04-28T19:42:54.888Z,99.90
2023-04-28T19:45:47.943Z,99.90
2023-04-28T19:48:41.236Z,99.90
2023-04-28T19:51:29.031Z,99.90
2023-04-28T19:54:16.840Z,99.90
2023-04-28T19:57:07.607Z,99.90
2023-04-28T19:59:55.505Z,99.90
2023-04-28T20:02:44.676Z,99.90
2023-04-28T20:05:39.590Z,99.90
2023-04-28T20:08:32.811Z,99.90
2023-04-28T20:11:21.325Z,99.90
2023-04-28T20:14:10.248Z,99.90
2023-04-28T20:16:58.164Z,99.90
2023-04-28T20:19:48.972Z,99.90
2023-04-28T20:22:38.537Z,99.90
2023-04-28T20:25:27.989Z,99.90
2023-04-28T20:28:16.002Z,99.90
2023-04-28T20:31:04.294Z,99.90
2023-04-28T20:33:52.008Z,99.90
2023-04-28T20:36:41.190Z,99.90
2023-04-28T20:39:50.942Z,99.90
2023-04-28T20:42:41.380Z,99.90
2023-04-28T20:48:17.550Z,98.00
2023-04-28T20:51:05.487Z,98.30
2023-04-28T20:53:53.510Z,98.30
2023-04-28T20:56:43.218Z,98.30
2023-04-28T20:59:32.637Z,98.30
2023-04-28T21:02:21.755Z,98.30
2023-04-28T21:05:10.460Z,98.40
2023-04-28T21:07:58.342Z,98.40
2023-04-28T21:10:53.163Z,98.50
2023-04-28T21:13:43.358Z,98.50
2023-04-28T21:16:34.671Z,98.60
2023-04-28T21:19:22.673Z,98.60
2023-04-28T21:22:10.886Z,98.70
2023-04-28T21:24:58.635Z,98.70
2023-04-28T21:27:46.446Z,98.70
2023-04-28T21:30:35.468Z,98.80
2023-04-28T21:33:27.660Z,98.80
2023-04-28T21:36:15.587Z,98.80
2023-04-28T21:39:05.030Z,98.80
2023-04-28T21:41:52.806Z,98.90
2023-04-28T21:44:43.072Z,98.90
2023-04-28T21:47:31.981Z,98.90
2023-04-28T21:50:21.698Z,99.00
2023-04-28T21:53:09.638Z,98.90
2023-04-28T21:56:00.366Z,98.90
2023-04-28T21:58:50.332Z,99.00
2023-04-28T22:01:38.650Z,99.00
2023-04-28T22:04:38.227Z,99.10
2023-04-28T22:07:28.603Z,99.10
2023-04-28T22:10:19.618Z,99.10
2023-04-28T22:13:07.813Z,99.10
2023-04-28T22:15:57.574Z,99.10
2023-04-28T22:18:45.632Z,99.10
2023-04-28T22:21:34.622Z,99.10
2023-04-28T22:24:22.387Z,99.10
2023-04-28T22:27:10.398Z,99.20
2023-04-28T22:29:58.927Z,99.20
2023-04-28T22:32:47.791Z,99.20
2023-04-28T22:35:35.892Z,99.20
2023-04-28T22:38:24.960Z,99.10
2023-04-28T22:41:13.971Z,99.10
2023-04-28T22:44:03.267Z,99.10
2023-04-28T22:46:55.091Z,99.20
2023-04-28T22:49:45.001Z,99.20
2023-04-28T22:52:37.071Z,99.30
2023-04-28T22:55:26.354Z,99.40
2023-04-28T22:58:15.484Z,99.40
2023-04-28T23:01:04.694Z,99.30
2023-04-28T23:03:52.512Z,99.40
2023-04-28T23:06:41.210Z,99.40
2023-04-28T23:09:36.076Z,99.40
2023-04-28T23:12:25.425Z,99.50
2023-04-28T23:15:13.373Z,99.50
2023-04-28T23:18:01.236Z,99.60
2023-04-28T23:20:50.537Z,99.60
2023-04-28T23:23:38.316Z,99.60
2023-04-28T23:26:26.524Z,99.60
2023-04-28T23:29:15.818Z,99.60
2023-04-28T23:32:03.645Z,99.60
2023-04-28T23:34:51.329Z,99.70
2023-04-28T23:37:38.857Z,99.70
2023-04-28T23:40:27.701Z,99.70
2023-04-28T23:43:15.655Z,99.70
2023-04-28T23:46:04.918Z,99.70
2023-04-28T23:48:52.724Z,99.70
2023-04-28T23:51:41.201Z,99.70
2023-04-28T23:54:36.091Z,99.80
2023-04-28T23:57:25.982Z,99.80
